sensor_id;sensor_type;location;lat;lon;timestamp;temperature;humidity
10536;DHT22;5316;49.538;8.352;2023-07-09T00:00:38;21.90;1.00
10536;DHT22;5316;49.538;8.352;2023-07-09T00:03:06;21.80;1.00
10536;DHT22;5316;49.538;8.352;2023-07-09T00:05:34;21.90;1.00
10536;DHT22;5316;49.538;8.352;2023-07-09T00:08:01;21.90;1.00
10536;DHT22;5316;49.538;8.352;2023-07-09T00:10:28;22.00;1.00
10536;DHT22;5316;49.538;8.352;2023-07-09T00:12:55;22.00;1.00
10536;DHT22;5316;49.538;8.352;2023-07-09T00:15:22;22.00;1.00
10536;DHT22;5316;49.538;8.352;2023-07-09T00:17:50;22.00;1.00
10536;DHT22;5316;49.538;8.352;2023-07-09T00:20:18;21.90;1.00
10536;DHT22;5316;49.538;8.352;2023-07-09T00:22:57;21.80;1.00
10536;DHT22;5316;49.538;8.352;2023-07-09T00:25:26;21.80;1.00
10536;DHT22;5316;49.538;8.352;2023-07-09T00:27:54;21.70;1.00
10536;DHT22;5316;49.538;8.352;2023-07-09T00:30:22;21.70;1.00
10536;DHT22;5316;49.538;8.352;2023-07-09T00:32:50;21.70;1.00
10536;DHT22;5316;49.538;8.352;2023-07-09T00:35:18;21.70;1.00
10536;DHT22;5316;49.538;8.352;2023-07-09T00:37:46;21.70;1.00
10536;DHT22;5316;49.538;8.352;2023-07-09T00:40:20;21.70;1.00
10536;DHT22;5316;49.538;8.352;2023-07-09T00:42:49;21.70;1.00
10536;DHT22;5316;49.538;8.352;2023-07-09T00:45:22;21.70;1.00
10536;DHT22;5316;49.538;8.352;2023-07-09T00:47:53;21.70;1.00
10536;DHT22;5316;49.538;8.352;2023-07-09T00:50:33;21.60;1.00
10536;DHT22;5316;49.538;8.352;2023-07-09T00:53:03;21.70;1.00
10536;DHT22;5316;49.538;8.352;2023-07-09T00:58:25;21.60;1.00
10536;DHT22;5316;49.538;8.352;2023-07-09T01:01:00;21.60;1.00
10536;DHT22;5316;49.538;8.352;2023-07-09T01:03:37;21.60;1.00
10536;DHT22;5316;49.538;8.352;2023-07-09T01:06:06;21.50;1.00
10536;DHT22;5316;49.538;8.352;2023-07-09T01:08:35;21.50;1.00
10536;DHT22;5316;49.538;8.352;2023-07-09T01:11:16;21.50;1.00
10536;DHT22;5316;49.538;8.352;2023-07-09T01:13:46;21.40;1.00
10536;DHT22;5316;49.538;8.352;2023-07-09T01:16:15;21.50;1.00
10536;DHT22;5316;49.538;8.352;2023-07-09T01:18:42;21.50;1.00
10536;DHT22;5316;49.538;8.352;2023-07-09T01:21:11;21.50;1.00
10536;DHT22;5316;49.538;8.352;2023-07-09T01:23:40;21.50;1.00
10536;DHT22;5316;49.538;8.352;2023-07-09T01:26:10;21.60;1.00
10536;DHT22;5316;49.538;8.352;2023-07-09T01:28:37;21.50;1.00
10536;DHT22;5316;49.538;8.352;2023-07-09T01:31:09;21.60;1.00
10536;DHT22;5316;49.538;8.352;2023-07-09T01:33:41;21.60;1.00
10536;DHT22;5316;49.538;8.352;2023-07-09T01:36:13;21.50;1.00
10536;DHT22;5316;49.538;8.352;2023-07-09T01:38:40;21.60;1.00
10536;DHT22;5316;49.538;8.352;2023-07-09T01:41:07;21.60;1.00
10536;DHT22;5316;49.538;8.352;2023-07-09T01:43:39;21.60;1.00
10536;DHT22;5316;49.538;8.352;2023-07-09T01:46:06;21.60;1.00
10536;DHT22;5316;49.538;8.352;2023-07-09T01:48:34;21.70;1.00
10536;DHT22;5316;49.538;8.352;2023-07-09T01:51:06;21.60;1.00
10536;DHT22;5316;49.538;8.352;2023-07-09T01:53:36;21.60;1.00
10536;DHT22;5316;49.538;8.352;2023-07-09T01:56:04;21.60;1.00
10536;DHT22;5316;49.538;8.352;2023-07-09T01:58:33;21.60;1.00
10536;DHT22;5316;49.538;8.352;2023-07-09T02:01:00;21.60;1.00
10536;DHT22;5316;49.538;8.352;2023-07-09T02:03:27;21.70;1.00
10536;DHT22;5316;49.538;8.352;2023-07-09T02:05:55;21.70;1.00
10536;DHT22;5316;49.538;8.352;2023-07-09T02:08:23;21.70;1.00
10536;DHT22;5316;49.538;8.352;2023-07-09T02:10:52;21.70;1.00
10536;DHT22;5316;49.538;8.352;2023-07-09T02:13:43;21.70;1.00
10536;DHT22;5316;49.538;8.352;2023-07-09T02:16:15;21.70;1.00
10536;DHT22;5316;49.538;8.352;2023-07-09T02:18:42;21.70;1.00
10536;DHT22;5316;49.538;8.352;2023-07-09T02:21:09;21.70;1.00
10536;DHT22;5316;49.538;8.352;2023-07-09T02:23:35;21.60;1.00
10536;DHT22;5316;49.538;8.352;2023-07-09T02:26:04;21.60;1.00
10536;DHT22;5316;49.538;8.352;2023-07-09T02:28:31;21.60;1.00
10536;DHT22;5316;49.538;8.352;2023-07-09T02:31:00;21.50;1.00
10536;DHT22;5316;49.538;8.352;2023-07-09T02:33:27;21.50;1.00
10536;DHT22;5316;49.538;8.352;2023-07-09T02:35:58;21.50;1.00
10536;DHT22;5316;49.538;8.352;2023-07-09T02:38:25;21.50;1.00
10536;DHT22;5316;49.538;8.352;2023-07-09T02:40:52;21.50;1.00
10536;DHT22;5316;49.538;8.352;2023-07-09T02:43:48;21.40;1.00
10536;DHT22;5316;49.538;8.352;2023-07-09T02:46:14;21.40;1.00
10536;DHT22;5316;49.538;8.352;2023-07-09T02:48:42;21.40;1.00
10536;DHT22;5316;49.538;8.352;2023-07-09T02:51:09;21.30;1.00
10536;DHT22;5316;49.538;8.352;2023-07-09T02:53:36;21.30;1.00
10536;DHT22;5316;49.538;8.352;2023-07-09T02:56:04;21.30;1.00
10536;DHT22;5316;49.538;8.352;2023-07-09T02:58:31;21.30;1.00
10536;DHT22;5316;49.538;8.352;2023-07-09T03:01:00;21.30;1.00
10536;DHT22;5316;49.538;8.352;2023-07-09T03:03:29;21.30;1.00
10536;DHT22;5316;49.538;8.352;2023-07-09T03:05:56;21.20;1.00
10536;DHT22;5316;49.538;8.352;2023-07-09T03:08:22;21.20;1.00
10536;DHT22;5316;49.538;8.352;2023-07-09T03:10:49;21.20;1.00
10536;DHT22;5316;49.538;8.352;2023-07-09T03:13:16;21.10;1.00
10536;DHT22;5316;49.538;8.352;2023-07-09T03:15:43;21.10;1.00
10536;DHT22;5316;49.538;8.352;2023-07-09T03:18:11;21.00;1.00
10536;DHT22;5316;49.538;8.352;2023-07-09T03:20:59;20.90;1.00
10536;DHT22;5316;49.538;8.352;2023-07-09T03:31:43;20.80;1.00
10536;DHT22;5316;49.538;8.352;2023-07-09T03:34:13;20.70;1.00
10536;DHT22;5316;49.538;8.352;2023-07-09T04:10:38;20.50;1.00
10536;DHT22;5316;49.538;8.352;2023-07-09T04:13:10;20.40;1.00
10536;DHT22;5316;49.538;8.352;2023-07-09T04:15:37;20.40;1.00
10536;DHT22;5316;49.538;8.352;2023-07-09T04:18:04;20.40;1.00
10536;DHT22;5316;49.538;8.352;2023-07-09T04:23:15;20.30;1.00
10536;DHT22;5316;49.538;8.352;2023-07-09T04:25:51;20.30;1.00
10536;DHT22;5316;49.538;8.352;2023-07-09T04:28:19;20.30;1.00
10536;DHT22;5316;49.538;8.352;2023-07-09T04:30:47;20.30;1.00
10536;DHT22;5316;49.538;8.352;2023-07-09T04:33:16;20.30;1.00
10536;DHT22;5316;49.538;8.352;2023-07-09T04:35:53;20.30;1.00
10536;DHT22;5316;49.538;8.352;2023-07-09T04:38:26;20.30;1.00
10536;DHT22;5316;49.538;8.352;2023-07-09T04:40:55;20.30;1.00
10536;DHT22;5316;49.538;8.352;2023-07-09T04:43:23;20.20;1.00
10536;DHT22;5316;49.538;8.352;2023-07-09T04:45:50;20.20;1.00
10536;DHT22;5316;49.538;8.352;2023-07-09T04:48:17;20.20;1.00
10536;DHT22;5316;49.538;8.352;2023-07-09T04:50:44;20.20;1.00
10536;DHT22;5316;49.538;8.352;2023-07-09T04:53:15;20.30;1.00
10536;DHT22;5316;49.538;8.352;2023-07-09T04:55:42;20.30;1.00
10536;DHT22;5316;49.538;8.352;2023-07-09T04:58:11;20.40;1.00
10536;DHT22;5316;49.538;8.352;2023-07-09T05:00:38;20.40;1.00
10536;DHT22;5316;49.538;8.352;2023-07-09T05:03:05;20.50;1.00
10536;DHT22;5316;49.538;8.352;2023-07-09T05:05:32;20.60;1.00
10536;DHT22;5316;49.538;8.352;2023-07-09T05:07:59;20.60;1.00
10536;DHT22;5316;49.538;8.352;2023-07-09T05:10:26;20.70;1.00
10536;DHT22;5316;49.538;8.352;2023-07-09T05:12:54;20.70;1.00
10536;DHT22;5316;49.538;8.352;2023-07-09T05:15:23;20.80;1.00
10536;DHT22;5316;49.538;8.352;2023-07-09T05:17:50;20.90;1.00
10536;DHT22;5316;49.538;8.352;2023-07-09T05:20:18;21.00;1.00
10536;DHT22;5316;49.538;8.352;2023-07-09T05:22:46;21.00;1.00
10536;DHT22;5316;49.538;8.352;2023-07-09T05:25:13;21.10;1.00
10536;DHT22;5316;49.538;8.352;2023-07-09T05:27:42;21.20;1.00
10536;DHT22;5316;49.538;8.352;2023-07-09T05:30:10;21.30;1.00
10536;DHT22;5316;49.538;8.352;2023-07-09T05:32:38;21.40;1.00
10536;DHT22;5316;49.538;8.352;2023-07-09T05:35:06;21.50;1.00
10536;DHT22;5316;49.538;8.352;2023-07-09T05:37:34;21.50;1.00
10536;DHT22;5316;49.538;8.352;2023-07-09T05:40:01;21.70;1.00
10536;DHT22;5316;49.538;8.352;2023-07-09T05:42:28;21.70;1.00
10536;DHT22;5316;49.538;8.352;2023-07-09T05:44:55;21.80;1.00
10536;DHT22;5316;49.538;8.352;2023-07-09T05:47:22;21.80;1.00
10536;DHT22;5316;49.538;8.352;2023-07-09T05:49:50;21.90;1.00
10536;DHT22;5316;49.538;8.352;2023-07-09T05:52:18;22.00;1.00
10536;DHT22;5316;49.538;8.352;2023-07-09T05:54:48;22.10;99.90
10536;DHT22;5316;49.538;8.352;2023-07-09T05:57:15;22.10;99.90
10536;DHT22;5316;49.538;8.352;2023-07-09T05:59:42;22.20;99.90
10536;DHT22;5316;49.538;8.352;2023-07-09T06:02:11;22.20;99.90
10536;DHT22;5316;49.538;8.352;2023-07-09T06:04:38;22.30;99.90
10536;DHT22;5316;49.538;8.352;2023-07-09T06:07:06;22.40;99.90
10536;DHT22;5316;49.538;8.352;2023-07-09T06:09:34;22.50;99.90
10536;DHT22;5316;49.538;8.352;2023-07-09T06:12:01;22.60;99.90
10536;DHT22;5316;49.538;8.352;2023-07-09T06:14:29;22.60;99.90
10536;DHT22;5316;49.538;8.352;2023-07-09T06:16:57;22.80;99.90
10536;DHT22;5316;49.538;8.352;2023-07-09T06:19:24;22.70;99.90
10536;DHT22;5316;49.538;8.352;2023-07-09T06:21:52;22.80;99.90
10536;DHT22;5316;49.538;8.352;2023-07-09T06:24:20;22.80;99.90
10536;DHT22;5316;49.538;8.352;2023-07-09T06:26:47;22.90;99.90
10536;DHT22;5316;49.538;8.352;2023-07-09T06:29:14;22.90;99.90
10536;DHT22;5316;49.538;8.352;2023-07-09T06:31:41;23.10;99.90
10536;DHT22;5316;49.538;8.352;2023-07-09T06:34:11;23.20;99.90
10536;DHT22;5316;49.538;8.352;2023-07-09T06:36:40;23.20;99.90
10536;DHT22;5316;49.538;8.352;2023-07-09T06:39:08;23.30;99.90
10536;DHT22;5316;49.538;8.352;2023-07-09T06:41:41;23.30;99.90
10536;DHT22;5316;49.538;8.352;2023-07-09T06:44:09;23.40;99.90
10536;DHT22;5316;49.538;8.352;2023-07-09T21:14:17;27.00;99.90
10536;DHT22;5316;49.538;8.352;2023-07-09T21:27:34;26.70;99.90
10536;DHT22;5316;49.538;8.352;2023-07-09T21:37:35;26.60;1.00
10536;DHT22;5316;49.538;8.352;2023-07-09T21:57:28;26.20;14.80
10536;DHT22;5316;49.538;8.352;2023-07-09T21:59:55;26.20;99.90
10536;DHT22;5316;49.538;8.352;2023-07-09T22:02:26;26.10;1.00
10536;DHT22;5316;49.538;8.352;2023-07-09T22:04:54;26.00;47.20
10536;DHT22;5316;49.538;8.352;2023-07-09T22:07:23;26.00;99.90
10536;DHT22;5316;49.538;8.352;2023-07-09T22:09:52;25.90;1.00
10536;DHT22;5316;49.538;8.352;2023-07-09T22:12:23;25.80;1.00
10536;DHT22;5316;49.538;8.352;2023-07-09T22:14:54;25.80;1.00
10536;DHT22;5316;49.538;8.352;2023-07-09T22:17:23;25.80;1.00
10536;DHT22;5316;49.538;8.352;2023-07-09T22:19:52;25.80;1.00
10536;DHT22;5316;49.538;8.352;2023-07-09T22:22:19;25.90;1.00
10536;DHT22;5316;49.538;8.352;2023-07-09T22:24:47;25.90;1.00
10536;DHT22;5316;49.538;8.352;2023-07-09T22:27:14;25.90;1.00
10536;DHT22;5316;49.538;8.352;2023-07-09T22:29:41;25.80;1.00
10536;DHT22;5316;49.538;8.352;2023-07-09T22:32:16;25.90;1.00
10536;DHT22;5316;49.538;8.352;2023-07-09T22:34:43;25.80;1.00
10536;DHT22;5316;49.538;8.352;2023-07-09T22:37:12;25.80;83.10
10536;DHT22;5316;49.538;8.352;2023-07-09T22:39:39;25.70;99.90
10536;DHT22;5316;49.538;8.352;2023-07-09T22:42:06;25.70;99.90
10536;DHT22;5316;49.538;8.352;2023-07-09T22:44:33;25.70;99.90
10536;DHT22;5316;49.538;8.352;2023-07-09T22:47:02;25.70;99.90
10536;DHT22;5316;49.538;8.352;2023-07-09T22:49:32;25.80;99.90
10536;DHT22;5316;49.538;8.352;2023-07-09T22:51:59;25.70;99.90
10536;DHT22;5316;49.538;8.352;2023-07-09T22:54:26;25.80;99.90
10536;DHT22;5316;49.538;8.352;2023-07-09T22:56:54;25.80;99.90
10536;DHT22;5316;49.538;8.352;2023-07-09T22:59:21;25.80;99.90
10536;DHT22;5316;49.538;8.352;2023-07-09T23:01:49;25.80;72.00
10536;DHT22;5316;49.538;8.352;2023-07-09T23:04:16;25.90;1.00
10536;DHT22;5316;49.538;8.352;2023-07-09T23:06:45;26.00;1.00
10536;DHT22;5316;49.538;8.352;2023-07-09T23:09:13;25.90;72.80
10536;DHT22;5316;49.538;8.352;2023-07-09T23:11:42;25.80;99.90
10536;DHT22;5316;49.538;8.352;2023-07-09T23:14:16;25.80;99.90
10536;DHT22;5316;49.538;8.352;2023-07-09T23:16:45;25.80;99.90
10536;DHT22;5316;49.538;8.352;2023-07-09T23:19:17;25.80;1.00
10536;DHT22;5316;49.538;8.352;2023-07-09T23:21:47;25.70;1.00
10536;DHT22;5316;49.538;8.352;2023-07-09T23:24:17;25.70;1.00
10536;DHT22;5316;49.538;8.352;2023-07-09T23:26:48;25.70;1.00
10536;DHT22;5316;49.538;8.352;2023-07-09T23:29:17;25.70;1.00
10536;DHT22;5316;49.538;8.352;2023-07-09T23:31:46;25.70;1.00
10536;DHT22;5316;49.538;8.352;2023-07-09T23:34:15;25.70;1.00
10536;DHT22;5316;49.538;8.352;2023-07-09T23:36:43;25.70;1.00
10536;DHT22;5316;49.538;8.352;2023-07-09T23:39:13;25.60;7.00
10536;DHT22;5316;49.538;8.352;2023-07-09T23:41:43;25.60;28.70
10536;DHT22;5316;49.538;8.352;2023-07-09T23:44:14;25.50;99.90
10536;DHT22;5316;49.538;8.352;2023-07-09T23:46:42;25.50;99.90
10536;DHT22;5316;49.538;8.352;2023-07-09T23:49:18;25.50;99.90
10536;DHT22;5316;49.538;8.352;2023-07-09T23:51:46;25.40;99.90
10536;DHT22;5316;49.538;8.352;2023-07-09T23:54:14;25.40;99.90
10536;DHT22;5316;49.538;8.352;2023-07-09T23:56:42;25.40;99.90
10536;DHT22;5316;49.538;8.352;2023-07-09T23:59:13;25.30;99.90
